sensor_id;sensor_type;location;lat;lon;timestamp;temperature;humidity
37678;DHT22;23517;50.390;8.616;2022-12-29T00:00:18;8.90;69.70
37678;DHT22;23517;50.390;8.616;2022-12-29T00:02:44;8.90;69.80
37678;DHT22;23517;50.390;8.616;2022-12-29T00:05:11;8.90;69.40
37678;DHT22;23517;50.390;8.616;2022-12-29T00:07:38;9.00;69.00
37678;DHT22;23517;50.390;8.616;2022-12-29T00:10:05;9.00;68.00
37678;DHT22;23517;50.390;8.616;2022-12-29T00:12:32;9.00;68.10
37678;DHT22;23517;50.390;8.616;2022-12-29T00:15:18;9.10;67.80
37678;DHT22;23517;50.390;8.616;2022-12-29T00:18:04;9.10;67.90
37678;DHT22;23517;50.390;8.616;2022-12-29T00:20:34;9.10;67.90
37678;DHT22;23517;50.390;8.616;2022-12-29T00:23:20;9.00;68.30
37678;DHT22;23517;50.390;8.616;2022-12-29T00:26:16;9.00;69.40
37678;DHT22;23517;50.390;8.616;2022-12-29T00:29:02;9.10;69.30
37678;DHT22;23517;50.390;8.616;2022-12-29T00:31:47;9.10;71.30
37678;DHT22;23517;50.390;8.616;2022-12-29T00:34:33;9.10;71.50
37678;DHT22;23517;50.390;8.616;2022-12-29T00:37:18;9.20;71.10
37678;DHT22;23517;50.390;8.616;2022-12-29T00:40:05;9.20;71.90
37678;DHT22;23517;50.390;8.616;2022-12-29T00:42:51;9.10;73.50
37678;DHT22;23517;50.390;8.616;2022-12-29T00:45:36;9.20;72.40
37678;DHT22;23517;50.390;8.616;2022-12-29T00:48:03;9.30;72.80
37678;DHT22;23517;50.390;8.616;2022-12-29T00:50:30;9.30;72.30
37678;DHT22;23517;50.390;8.616;2022-12-29T00:52:56;9.30;72.70
37678;DHT22;23517;50.390;8.616;2022-12-29T00:55:23;9.20;72.80
37678;DHT22;23517;50.390;8.616;2022-12-29T00:57:49;9.30;72.90
37678;DHT22;23517;50.390;8.616;2022-12-29T01:00:16;9.30;73.40
37678;DHT22;23517;50.390;8.616;2022-12-29T01:02:43;9.30;73.60
37678;DHT22;23517;50.390;8.616;2022-12-29T01:05:09;9.30;74.10
37678;DHT22;23517;50.390;8.616;2022-12-29T01:07:36;9.30;74.50
37678;DHT22;23517;50.390;8.616;2022-12-29T01:10:03;9.40;74.00
37678;DHT22;23517;50.390;8.616;2022-12-29T01:12:36;9.40;73.90
37678;DHT22;23517;50.390;8.616;2022-12-29T01:15:11;9.30;75.10
37678;DHT22;23517;50.390;8.616;2022-12-29T01:17:40;9.30;75.30
37678;DHT22;23517;50.390;8.616;2022-12-29T01:20:07;9.30;75.60
37678;DHT22;23517;50.390;8.616;2022-12-29T01:22:34;9.30;76.20
37678;DHT22;23517;50.390;8.616;2022-12-29T01:25:01;9.40;75.20
37678;DHT22;23517;50.390;8.616;2022-12-29T01:27:27;9.40;74.90
37678;DHT22;23517;50.390;8.616;2022-12-29T01:29:54;9.40;75.60
37678;DHT22;23517;50.390;8.616;2022-12-29T01:32:21;9.40;75.60
37678;DHT22;23517;50.390;8.616;2022-12-29T01:34:47;9.30;76.00
37678;DHT22;23517;50.390;8.616;2022-12-29T01:37:14;9.40;75.60
37678;DHT22;23517;50.390;8.616;2022-12-29T01:39:41;9.30;75.50
37678;DHT22;23517;50.390;8.616;2022-12-29T01:42:16;9.40;75.20
37678;DHT22;23517;50.390;8.616;2022-12-29T01:44:50;9.40;74.70
37678;DHT22;23517;50.390;8.616;2022-12-29T01:47:38;9.40;76.00
37678;DHT22;23517;50.390;8.616;2022-12-29T01:50:14;9.40;75.10
37678;DHT22;23517;50.390;8.616;2022-12-29T01:53:10;9.40;75.50
37678;DHT22;23517;50.390;8.616;2022-12-29T01:55:46;9.40;75.80
37678;DHT22;23517;50.390;8.616;2022-12-29T01:58:20;9.40;76.40
37678;DHT22;23517;50.390;8.616;2022-12-29T02:00:48;9.30;76.60
37678;DHT22;23517;50.390;8.616;2022-12-29T02:03:20;9.30;77.00
37678;DHT22;23517;50.390;8.616;2022-12-29T02:05:58;9.40;76.90
37678;DHT22;23517;50.390;8.616;2022-12-29T02:08:29;9.40;77.50
37678;DHT22;23517;50.390;8.616;2022-12-29T02:10:58;9.40;77.00
37678;DHT22;23517;50.390;8.616;2022-12-29T02:13:27;9.40;76.90
37678;DHT22;23517;50.390;8.616;2022-12-29T02:16:21;9.40;77.10
37678;DHT22;23517;50.390;8.616;2022-12-29T02:25:51;9.30;77.10
37678;DHT22;23517;50.390;8.616;2022-12-29T02:43:19;9.50;76.10
37678;DHT22;23517;50.390;8.616;2022-12-29T02:46:20;9.60;75.60
37678;DHT22;23517;50.390;8.616;2022-12-29T02:49:09;9.60;74.90
37678;DHT22;23517;50.390;8.616;2022-12-29T02:54:33;9.60;74.70
37678;DHT22;23517;50.390;8.616;2022-12-29T02:59:52;9.60;74.70
37678;DHT22;23517;50.390;8.616;2022-12-29T03:10:59;9.60;73.50
37678;DHT22;23517;50.390;8.616;2022-12-29T03:13:47;9.70;73.70
37678;DHT22;23517;50.390;8.616;2022-12-29T03:16:46;9.80;72.60
37678;DHT22;23517;50.390;8.616;2022-12-29T03:19:20;9.70;73.80
37678;DHT22;23517;50.390;8.616;2022-12-29T03:22:08;9.80;74.30
37678;DHT22;23517;50.390;8.616;2022-12-29T03:27:58;9.70;75.40
37678;DHT22;23517;50.390;8.616;2022-12-29T03:30:29;9.60;76.10
37678;DHT22;23517;50.390;8.616;2022-12-29T03:33:04;9.60;76.30
37678;DHT22;23517;50.390;8.616;2022-12-29T03:35:37;9.70;77.50
37678;DHT22;23517;50.390;8.616;2022-12-29T03:38:14;9.70;78.10
37678;DHT22;23517;50.390;8.616;2022-12-29T03:41:24;9.70;77.00
37678;DHT22;23517;50.390;8.616;2022-12-29T03:43:56;9.80;76.30
37678;DHT22;23517;50.390;8.616;2022-12-29T03:46:22;9.80;77.40
37678;DHT22;23517;50.390;8.616;2022-12-29T03:48:52;9.80;77.30
37678;DHT22;23517;50.390;8.616;2022-12-29T03:51:19;9.80;77.20
37678;DHT22;23517;50.390;8.616;2022-12-29T03:53:45;9.80;77.50
37678;DHT22;23517;50.390;8.616;2022-12-29T03:56:12;9.70;78.00
37678;DHT22;23517;50.390;8.616;2022-12-29T03:58:39;9.70;77.90
37678;DHT22;23517;50.390;8.616;2022-12-29T04:01:06;9.70;77.80
37678;DHT22;23517;50.390;8.616;2022-12-29T04:03:33;9.70;77.70
37678;DHT22;23517;50.390;8.616;2022-12-29T04:06:00;9.80;77.00
37678;DHT22;23517;50.390;8.616;2022-12-29T04:08:28;9.70;76.50
37678;DHT22;23517;50.390;8.616;2022-12-29T04:10:55;9.80;77.30
37678;DHT22;23517;50.390;8.616;2022-12-29T04:13:21;9.70;77.50
37678;DHT22;23517;50.390;8.616;2022-12-29T04:15:50;9.70;77.10
37678;DHT22;23517;50.390;8.616;2022-12-29T04:18:17;9.70;77.20
37678;DHT22;23517;50.390;8.616;2022-12-29T04:20:44;9.70;76.70
37678;DHT22;23517;50.390;8.616;2022-12-29T04:23:31;9.70;76.50
37678;DHT22;23517;50.390;8.616;2022-12-29T04:25:59;9.70;76.80
37678;DHT22;23517;50.390;8.616;2022-12-29T04:28:25;9.80;75.60
37678;DHT22;23517;50.390;8.616;2022-12-29T04:30:53;9.90;75.20
37678;DHT22;23517;50.390;8.616;2022-12-29T04:33:21;9.70;75.20
37678;DHT22;23517;50.390;8.616;2022-12-29T04:35:48;9.70;74.70
37678;DHT22;23517;50.390;8.616;2022-12-29T04:38:15;9.70;74.40
37678;DHT22;23517;50.390;8.616;2022-12-29T04:40:44;9.80;72.70
37678;DHT22;23517;50.390;8.616;2022-12-29T04:43:12;9.90;71.20
37678;DHT22;23517;50.390;8.616;2022-12-29T04:45:43;9.90;71.00
37678;DHT22;23517;50.390;8.616;2022-12-29T04:48:13;9.90;71.50
37678;DHT22;23517;50.390;8.616;2022-12-29T04:50:41;9.90;71.60
37678;DHT22;23517;50.390;8.616;2022-12-29T04:53:11;9.90;71.80
37678;DHT22;23517;50.390;8.616;2022-12-29T04:55:38;9.90;72.30
37678;DHT22;23517;50.390;8.616;2022-12-29T04:58:04;9.80;73.40
37678;DHT22;23517;50.390;8.616;2022-12-29T05:00:31;9.80;73.40
37678;DHT22;23517;50.390;8.616;2022-12-29T05:02:58;9.90;73.70
37678;DHT22;23517;50.390;8.616;2022-12-29T05:05:25;9.90;73.90
37678;DHT22;23517;50.390;8.616;2022-12-29T05:07:52;9.80;74.40
37678;DHT22;23517;50.390;8.616;2022-12-29T05:10:19;9.90;74.60
37678;DHT22;23517;50.390;8.616;2022-12-29T05:12:45;9.80;73.80
37678;DHT22;23517;50.390;8.616;2022-12-29T05:15:12;9.80;73.50
37678;DHT22;23517;50.390;8.616;2022-12-29T05:17:40;9.80;74.00
37678;DHT22;23517;50.390;8.616;2022-12-29T05:20:07;9.90;72.40
37678;DHT22;23517;50.390;8.616;2022-12-29T05:22:34;9.80;71.80
37678;DHT22;23517;50.390;8.616;2022-12-29T05:25:01;9.80;72.10
37678;DHT22;23517;50.390;8.616;2022-12-29T05:27:27;9.80;71.90
37678;DHT22;23517;50.390;8.616;2022-12-29T05:29:54;9.80;72.00
37678;DHT22;23517;50.390;8.616;2022-12-29T05:32:21;9.90;70.90
37678;DHT22;23517;50.390;8.616;2022-12-29T05:34:47;9.90;70.30
37678;DHT22;23517;50.390;8.616;2022-12-29T05:37:14;10.00;69.00
37678;DHT22;23517;50.390;8.616;2022-12-29T05:39:41;10.00;68.60
37678;DHT22;23517;50.390;8.616;2022-12-29T05:42:07;10.00;69.50
37678;DHT22;23517;50.390;8.616;2022-12-29T05:44:34;10.00;69.10
37678;DHT22;23517;50.390;8.616;2022-12-29T05:47:01;9.90;69.70
37678;DHT22;23517;50.390;8.616;2022-12-29T05:49:28;10.00;68.20
37678;DHT22;23517;50.390;8.616;2022-12-29T05:51:54;10.00;68.40
37678;DHT22;23517;50.390;8.616;2022-12-29T05:54:21;10.00;68.30
37678;DHT22;23517;50.390;8.616;2022-12-29T05:56:48;10.00;68.70
37678;DHT22;23517;50.390;8.616;2022-12-29T05:59:14;10.00;69.10
37678;DHT22;23517;50.390;8.616;2022-12-29T06:01:41;10.00;69.90
37678;DHT22;23517;50.390;8.616;2022-12-29T06:04:08;10.10;70.40
37678;DHT22;23517;50.390;8.616;2022-12-29T06:06:34;10.00;70.30
37678;DHT22;23517;50.390;8.616;2022-12-29T06:09:01;10.00;70.20
37678;DHT22;23517;50.390;8.616;2022-12-29T06:11:28;10.00;70.30
37678;DHT22;23517;50.390;8.616;2022-12-29T06:13:54;10.00;70.50
37678;DHT22;23517;50.390;8.616;2022-12-29T06:16:21;10.00;70.60
37678;DHT22;23517;50.390;8.616;2022-12-29T06:18:48;10.00;70.30
37678;DHT22;23517;50.390;8.616;2022-12-29T06:21:14;9.90;71.00
37678;DHT22;23517;50.390;8.616;2022-12-29T06:23:42;9.90;71.30
37678;DHT22;23517;50.390;8.616;2022-12-29T06:26:09;10.00;70.60
37678;DHT22;23517;50.390;8.616;2022-12-29T06:28:36;9.90;71.50
37678;DHT22;23517;50.390;8.616;2022-12-29T06:31:02;9.90;72.20
37678;DHT22;23517;50.390;8.616;2022-12-29T06:33:29;9.90;73.10
37678;DHT22;23517;50.390;8.616;2022-12-29T06:35:56;9.90;73.00
37678;DHT22;23517;50.390;8.616;2022-12-29T06:38:27;9.90;73.70
37678;DHT22;23517;50.390;8.616;2022-12-29T06:40:53;9.90;73.70
37678;DHT22;23517;50.390;8.616;2022-12-29T06:43:20;9.90;73.20
37678;DHT22;23517;50.390;8.616;2022-12-29T06:45:46;9.90;73.30
37678;DHT22;23517;50.390;8.616;2022-12-29T06:48:13;9.90;73.20
37678;DHT22;23517;50.390;8.616;2022-12-29T06:50:40;9.90;72.90
37678;DHT22;23517;50.390;8.616;2022-12-29T06:53:07;10.00;72.60
37678;DHT22;23517;50.390;8.616;2022-12-29T06:55:33;10.00;71.50
37678;DHT22;23517;50.390;8.616;2022-12-29T06:58:00;10.00;72.50
37678;DHT22;23517;50.390;8.616;2022-12-29T07:00:27;10.00;72.70
37678;DHT22;23517;50.390;8.616;2022-12-29T07:02:55;10.00;73.90
37678;DHT22;23517;50.390;8.616;2022-12-29T07:05:24;9.90;74.20
37678;DHT22;23517;50.390;8.616;2022-12-29T07:07:54;9.90;75.80
37678;DHT22;23517;50.390;8.616;2022-12-29T07:10:21;9.90;75.50
37678;DHT22;23517;50.390;8.616;2022-12-29T07:12:48;9.90;76.60
37678;DHT22;23517;50.390;8.616;2022-12-29T07:15:15;9.80;77.40
37678;DHT22;23517;50.390;8.616;2022-12-29T07:17:42;9.80;78.20
37678;DHT22;23517;50.390;8.616;2022-12-29T07:20:09;9.80;79.20
37678;DHT22;23517;50.390;8.616;2022-12-29T07:22:36;9.80;78.70
37678;DHT22;23517;50.390;8.616;2022-12-29T07:25:03;9.80;78.20
37678;DHT22;23517;50.390;8.616;2022-12-29T07:27:30;9.80;78.60
37678;DHT22;23517;50.390;8.616;2022-12-29T07:29:56;9.70;78.80
37678;DHT22;23517;50.390;8.616;2022-12-29T07:32:23;9.70;79.60
37678;DHT22;23517;50.390;8.616;2022-12-29T07:34:50;9.60;79.60
37678;DHT22;23517;50.390;8.616;2022-12-29T07:37:17;9.60;78.40
37678;DHT22;23517;50.390;8.616;2022-12-29T07:39:45;9.70;75.80
37678;DHT22;23517;50.390;8.616;2022-12-29T07:42:11;9.80;75.80
37678;DHT22;23517;50.390;8.616;2022-12-29T07:44:38;9.80;74.50
37678;DHT22;23517;50.390;8.616;2022-12-29T07:47:08;9.90;73.10
37678;DHT22;23517;50.390;8.616;2022-12-29T07:49:35;9.90;73.20
37678;DHT22;23517;50.390;8.616;2022-12-29T07:52:02;9.90;72.30
37678;DHT22;23517;50.390;8.616;2022-12-29T07:54:29;9.90;72.00
37678;DHT22;23517;50.390;8.616;2022-12-29T07:56:56;9.90;71.30
37678;DHT22;23517;50.390;8.616;2022-12-29T07:59:23;9.90;71.40
37678;DHT22;23517;50.390;8.616;2022-12-29T08:01:51;10.00;70.00
37678;DHT22;23517;50.390;8.616;2022-12-29T08:04:18;9.90;69.90
37678;DHT22;23517;50.390;8.616;2022-12-29T08:06:44;10.00;68.80
37678;DHT22;23517;50.390;8.616;2022-12-29T08:09:11;10.10;68.50
37678;DHT22;23517;50.390;8.616;2022-12-29T08:11:47;10.10;67.90
37678;DHT22;23517;50.390;8.616;2022-12-29T08:14:14;10.10;67.20
37678;DHT22;23517;50.390;8.616;2022-12-29T08:16:41;10.20;65.80
37678;DHT22;23517;50.390;8.616;2022-12-29T08:19:10;10.20;65.90
37678;DHT22;23517;50.390;8.616;2022-12-29T08:21:38;10.20;65.50
37678;DHT22;23517;50.390;8.616;2022-12-29T08:24:05;10.20;65.60
37678;DHT22;23517;50.390;8.616;2022-12-29T08:26:32;10.30;63.60
37678;DHT22;23517;50.390;8.616;2022-12-29T08:28:59;10.40;63.80
37678;DHT22;23517;50.390;8.616;2022-12-29T08:31:26;10.40;62.90
37678;DHT22;23517;50.390;8.616;2022-12-29T08:33:52;10.50;62.40
37678;DHT22;23517;50.390;8.616;2022-12-29T08:36:19;10.50;62.50
37678;DHT22;23517;50.390;8.616;2022-12-29T08:38:46;10.50;63.30
37678;DHT22;23517;50.390;8.616;2022-12-29T08:41:12;10.60;62.60
37678;DHT22;23517;50.390;8.616;2022-12-29T08:43:39;10.70;61.60
37678;DHT22;23517;50.390;8.616;2022-12-29T08:46:05;10.70;61.50
37678;DHT22;23517;50.390;8.616;2022-12-29T08:48:34;10.80;61.80
37678;DHT22;23517;50.390;8.616;2022-12-29T08:51:01;10.80;62.50
37678;DHT22;23517;50.390;8.616;2022-12-29T08:53:28;10.80;61.30
37678;DHT22;23517;50.390;8.616;2022-12-29T08:55:57;10.80;63.10
37678;DHT22;23517;50.390;8.616;2022-12-29T08:58:31;10.70;63.90
37678;DHT22;23517;50.390;8.616;2022-12-29T09:00:58;10.60;64.60
37678;DHT22;23517;50.390;8.616;2022-12-29T09:03:25;10.60;66.30
37678;DHT22;23517;50.390;8.616;2022-12-29T09:06:13;10.50;68.00
37678;DHT22;23517;50.390;8.616;2022-12-29T09:08:41;10.40;71.00
37678;DHT22;23517;50.390;8.616;2022-12-29T09:11:13;10.30;72.80
37678;DHT22;23517;50.390;8.616;2022-12-29T09:13:41;10.30;73.80
37678;DHT22;23517;50.390;8.616;2022-12-29T09:16:08;10.20;76.30
37678;DHT22;23517;50.390;8.616;2022-12-29T09:18:35;10.20;75.50
37678;DHT22;23517;50.390;8.616;2022-12-29T09:21:04;10.10;76.00
37678;DHT22;23517;50.390;8.616;2022-12-29T09:23:32;10.10;76.00
37678;DHT22;23517;50.390;8.616;2022-12-29T09:26:00;10.20;76.20
37678;DHT22;23517;50.390;8.616;2022-12-29T09:28:26;10.20;75.50
37678;DHT22;23517;50.390;8.616;2022-12-29T09:30:56;10.20;75.70
37678;DHT22;23517;50.390;8.616;2022-12-29T09:33:23;10.20;76.00
37678;DHT22;23517;50.390;8.616;2022-12-29T09:35:52;10.20;77.00
37678;DHT22;23517;50.390;8.616;2022-12-29T09:38:21;10.10;77.80
37678;DHT22;23517;50.390;8.616;2022-12-29T09:40:54;10.10;78.60
37678;DHT22;23517;50.390;8.616;2022-12-29T09:43:45;10.10;79.20
37678;DHT22;23517;50.390;8.616;2022-12-29T09:49:21;10.10;78.10
37678;DHT22;23517;50.390;8.616;2022-12-29T09:51:54;10.20;77.90
37678;DHT22;23517;50.390;8.616;2022-12-29T09:57:22;10.10;77.60
37678;DHT22;23517;50.390;8.616;2022-12-29T09:59:56;10.20;77.30
37678;DHT22;23517;50.390;8.616;2022-12-29T10:02:38;10.20;77.40
37678;DHT22;23517;50.390;8.616;2022-12-29T10:05:28;10.20;76.10
37678;DHT22;23517;50.390;8.616;2022-12-29T10:11:03;10.30;74.00
37678;DHT22;23517;50.390;8.616;2022-12-29T10:20:28;10.30;72.60
37678;DHT22;23517;50.390;8.616;2022-12-29T10:23:25;10.30;71.30
37678;DHT22;23517;50.390;8.616;2022-12-29T10:25:59;10.30;70.80
37678;DHT22;23517;50.390;8.616;2022-12-29T10:31:17;10.30;70.50
37678;DHT22;23517;50.390;8.616;2022-12-29T10:33:56;10.40;70.50
37678;DHT22;23517;50.390;8.616;2022-12-29T10:36:34;10.50;69.50
37678;DHT22;23517;50.390;8.616;2022-12-29T10:44:51;10.60;66.30
37678;DHT22;23517;50.390;8.616;2022-12-29T10:47:23;10.70;66.00
37678;DHT22;23517;50.390;8.616;2022-12-29T10:49:52;10.90;65.60
37678;DHT22;23517;50.390;8.616;2022-12-29T10:52:20;11.10;63.30
37678;DHT22;23517;50.390;8.616;2022-12-29T10:54:58;11.30;64.10
37678;DHT22;23517;50.390;8.616;2022-12-29T11:00:15;11.60;57.90
37678;DHT22;23517;50.390;8.616;2022-12-29T11:03:12;11.60;58.20
37678;DHT22;23517;50.390;8.616;2022-12-29T11:08:22;11.60;56.20
37678;DHT22;23517;50.390;8.616;2022-12-29T11:11:01;11.60;56.10
37678;DHT22;23517;50.390;8.616;2022-12-29T11:13:31;11.50;55.50
37678;DHT22;23517;50.390;8.616;2022-12-29T11:16:05;11.40;55.30
37678;DHT22;23517;50.390;8.616;2022-12-29T11:18:36;11.40;54.30
37678;DHT22;23517;50.390;8.616;2022-12-29T11:21:06;11.30;53.60
37678;DHT22;23517;50.390;8.616;2022-12-29T11:23:59;11.40;52.90
37678;DHT22;23517;50.390;8.616;2022-12-29T11:26:31;11.40;53.20
37678;DHT22;23517;50.390;8.616;2022-12-29T11:29:20;11.30;52.10
37678;DHT22;23517;50.390;8.616;2022-12-29T11:34:22;11.30;52.70
37678;DHT22;23517;50.390;8.616;2022-12-29T11:36:59;11.40;52.50
37678;DHT22;23517;50.390;8.616;2022-12-29T11:42:21;11.50;50.90
37678;DHT22;23517;50.390;8.616;2022-12-29T11:44:51;11.40;48.70
37678;DHT22;23517;50.390;8.616;2022-12-29T11:47:26;11.30;48.60
37678;DHT22;23517;50.390;8.616;2022-12-29T11:49:58;11.30;48.50
37678;DHT22;23517;50.390;8.616;2022-12-29T11:52:29;11.40;49.20
37678;DHT22;23517;50.390;8.616;2022-12-29T11:55:00;11.40;48.90
37678;DHT22;23517;50.390;8.616;2022-12-29T11:57:29;11.40;47.60
37678;DHT22;23517;50.390;8.616;2022-12-29T11:59:59;11.40;46.90
37678;DHT22;23517;50.390;8.616;2022-12-29T12:02:44;11.40;48.50
37678;DHT22;23517;50.390;8.616;2022-12-29T12:08:41;11.30;47.10
37678;DHT22;23517;50.390;8.616;2022-12-29T12:11:25;11.30;46.90
37678;DHT22;23517;50.390;8.616;2022-12-29T12:14:18;11.20;45.80
37678;DHT22;23517;50.390;8.616;2022-12-29T12:17:00;11.20;47.00
37678;DHT22;23517;50.390;8.616;2022-12-29T12:26:11;11.20;44.90
37678;DHT22;23517;50.390;8.616;2022-12-29T12:31:48;11.20;45.10
37678;DHT22;23517;50.390;8.616;2022-12-29T12:40:15;11.20;44.90
37678;DHT22;23517;50.390;8.616;2022-12-29T12:43:12;11.10;45.20
37678;DHT22;23517;50.390;8.616;2022-12-29T12:45:49;11.10;45.30
37678;DHT22;23517;50.390;8.616;2022-12-29T12:48:46;11.10;45.80
37678;DHT22;23517;50.390;8.616;2022-12-29T13:01:16;11.50;44.50
37678;DHT22;23517;50.390;8.616;2022-12-29T13:10:13;11.50;44.30
37678;DHT22;23517;50.390;8.616;2022-12-29T13:16:24;11.50;44.50
37678;DHT22;23517;50.390;8.616;2022-12-29T13:19:17;11.40;43.60
37678;DHT22;23517;50.390;8.616;2022-12-29T13:22:52;11.40;44.00
37678;DHT22;23517;50.390;8.616;2022-12-29T13:25:48;11.40;43.90
37678;DHT22;23517;50.390;8.616;2022-12-29T13:28:30;11.30;43.50
37678;DHT22;23517;50.390;8.616;2022-12-29T13:36:52;11.30;43.70
37678;DHT22;23517;50.390;8.616;2022-12-29T13:39:57;11.30;44.30
37678;DHT22;23517;50.390;8.616;2022-12-29T13:42:27;11.30;43.40
37678;DHT22;23517;50.390;8.616;2022-12-29T13:45:06;11.30;44.30
37678;DHT22;23517;50.390;8.616;2022-12-29T13:50:38;11.20;44.50
37678;DHT22;23517;50.390;8.616;2022-12-29T13:53:35;11.10;44.60
37678;DHT22;23517;50.390;8.616;2022-12-29T13:56:42;11.10;45.00
37678;DHT22;23517;50.390;8.616;2022-12-29T14:00:03;11.10;45.30
37678;DHT22;23517;50.390;8.616;2022-12-29T14:08:03;11.10;45.70
37678;DHT22;23517;50.390;8.616;2022-12-29T14:10:50;11.20;45.40
37678;DHT22;23517;50.390;8.616;2022-12-29T14:13:20;11.20;45.00
37678;DHT22;23517;50.390;8.616;2022-12-29T14:15:57;11.10;45.80
37678;DHT22;23517;50.390;8.616;2022-12-29T14:18:27;11.00;45.70
37678;DHT22;23517;50.390;8.616;2022-12-29T14:23:44;10.80;45.60
37678;DHT22;23517;50.390;8.616;2022-12-29T14:34:48;10.60;45.50
37678;DHT22;23517;50.390;8.616;2022-12-29T14:37:33;10.50;45.50
37678;DHT22;23517;50.390;8.616;2022-12-29T14:40:23;10.40;45.30
37678;DHT22;23517;50.390;8.616;2022-12-29T14:42:53;10.40;45.80
37678;DHT22;23517;50.390;8.616;2022-12-29T14:47:49;10.30;46.40
37678;DHT22;23517;50.390;8.616;2022-12-29T14:50:23;10.30;46.80
37678;DHT22;23517;50.390;8.616;2022-12-29T14:55:55;10.30;46.40
37678;DHT22;23517;50.390;8.616;2022-12-29T14:58:32;10.20;45.80
37678;DHT22;23517;50.390;8.616;2022-12-29T15:01:26;10.20;45.60
37678;DHT22;23517;50.390;8.616;2022-12-29T15:03:57;10.10;45.80
37678;DHT22;23517;50.390;8.616;2022-12-29T15:06:29;10.10;46.70
37678;DHT22;23517;50.390;8.616;2022-12-29T15:11:59;10.10;45.70
37678;DHT22;23517;50.390;8.616;2022-12-29T15:14:55;10.00;46.10
37678;DHT22;23517;50.390;8.616;2022-12-29T15:17:27;9.90;46.70
37678;DHT22;23517;50.390;8.616;2022-12-29T15:19:57;9.90;47.60
37678;DHT22;23517;50.390;8.616;2022-12-29T15:22:44;9.90;47.90
37678;DHT22;23517;50.390;8.616;2022-12-29T15:25:20;9.80;48.20
37678;DHT22;23517;50.390;8.616;2022-12-29T15:27:52;9.80;48.50
37678;DHT22;23517;50.390;8.616;2022-12-29T15:30:21;9.70;49.40
37678;DHT22;23517;50.390;8.616;2022-12-29T15:32:49;9.70;48.80
37678;DHT22;23517;50.390;8.616;2022-12-29T15:35:32;9.80;48.40
37678;DHT22;23517;50.390;8.616;2022-12-29T15:38:36;9.80;48.00
37678;DHT22;23517;50.390;8.616;2022-12-29T15:44:14;9.60;48.50
37678;DHT22;23517;50.390;8.616;2022-12-29T15:46:44;9.60;49.00
37678;DHT22;23517;50.390;8.616;2022-12-29T15:49:13;9.50;49.70
37678;DHT22;23517;50.390;8.616;2022-12-29T15:51:40;9.50;50.20
37678;DHT22;23517;50.390;8.616;2022-12-29T15:54:16;9.50;50.90
37678;DHT22;23517;50.390;8.616;2022-12-29T15:56:44;9.40;51.20
37678;DHT22;23517;50.390;8.616;2022-12-29T15:59:32;9.40;50.10
37678;DHT22;23517;50.390;8.616;2022-12-29T16:02:02;9.50;48.40
37678;DHT22;23517;50.390;8.616;2022-12-29T16:04:38;9.50;50.10
37678;DHT22;23517;50.390;8.616;2022-12-29T16:07:31;9.50;49.50
37678;DHT22;23517;50.390;8.616;2022-12-29T16:10:26;9.60;48.10
37678;DHT22;23517;50.390;8.616;2022-12-29T16:16:14;9.50;48.10
37678;DHT22;23517;50.390;8.616;2022-12-29T16:18:43;9.50;48.50
37678;DHT22;23517;50.390;8.616;2022-12-29T16:21:21;9.50;49.30
37678;DHT22;23517;50.390;8.616;2022-12-29T16:23:53;9.30;49.70
37678;DHT22;23517;50.390;8.616;2022-12-29T16:26:23;9.20;50.80
37678;DHT22;23517;50.390;8.616;2022-12-29T16:28:58;9.10;53.00
37678;DHT22;23517;50.390;8.616;2022-12-29T16:31:35;8.90;52.80
37678;DHT22;23517;50.390;8.616;2022-12-29T16:37:01;8.70;53.70
37678;DHT22;23517;50.390;8.616;2022-12-29T16:48:09;8.50;54.70
37678;DHT22;23517;50.390;8.616;2022-12-29T16:50:39;8.50;53.50
37678;DHT22;23517;50.390;8.616;2022-12-29T16:53:20;8.50;52.50
37678;DHT22;23517;50.390;8.616;2022-12-29T16:55:50;8.60;50.40
37678;DHT22;23517;50.390;8.616;2022-12-29T16:58:21;8.60;48.50
37678;DHT22;23517;50.390;8.616;2022-12-29T17:00:49;8.80;46.60
37678;DHT22;23517;50.390;8.616;2022-12-29T17:03:20;8.90;45.10
37678;DHT22;23517;50.390;8.616;2022-12-29T17:05:46;8.80;45.10
37678;DHT22;23517;50.390;8.616;2022-12-29T17:08:21;8.80;45.60
37678;DHT22;23517;50.390;8.616;2022-12-29T17:10:51;8.80;45.50
37678;DHT22;23517;50.390;8.616;2022-12-29T17:13:38;8.80;45.60
37678;DHT22;23517;50.390;8.616;2022-12-29T17:16:06;8.70;45.70
37678;DHT22;23517;50.390;8.616;2022-12-29T17:18:34;8.70;46.00
37678;DHT22;23517;50.390;8.616;2022-12-29T17:21:01;8.70;45.90
37678;DHT22;23517;50.390;8.616;2022-12-29T17:23:29;8.60;46.20
37678;DHT22;23517;50.390;8.616;2022-12-29T17:25:57;8.60;46.30
37678;DHT22;23517;50.390;8.616;2022-12-29T17:28:26;8.50;46.80
37678;DHT22;23517;50.390;8.616;2022-12-29T17:30:59;8.40;46.90
37678;DHT22;23517;50.390;8.616;2022-12-29T17:33:30;8.40;47.50
37678;DHT22;23517;50.390;8.616;2022-12-29T17:36:01;8.30;48.30
37678;DHT22;23517;50.390;8.616;2022-12-29T17:38:30;8.20;48.90
37678;DHT22;23517;50.390;8.616;2022-12-29T17:40:58;8.10;49.50
37678;DHT22;23517;50.390;8.616;2022-12-29T17:43:25;8.00;49.90
37678;DHT22;23517;50.390;8.616;2022-12-29T17:46:00;7.90;50.40
37678;DHT22;23517;50.390;8.616;2022-12-29T17:48:26;7.80;50.30
37678;DHT22;23517;50.390;8.616;2022-12-29T17:50:54;7.70;50.70
37678;DHT22;23517;50.390;8.616;2022-12-29T17:53:25;7.60;51.30
37678;DHT22;23517;50.390;8.616;2022-12-29T17:55:53;7.60;51.10
37678;DHT22;23517;50.390;8.616;2022-12-29T17:58:25;7.60;51.90
37678;DHT22;23517;50.390;8.616;2022-12-29T18:00:55;7.50;52.40
37678;DHT22;23517;50.390;8.616;2022-12-29T18:03:27;7.40;52.90
37678;DHT22;23517;50.390;8.616;2022-12-29T18:05:55;7.30;53.40
37678;DHT22;23517;50.390;8.616;2022-12-29T18:08:22;7.20;53.70
37678;DHT22;23517;50.390;8.616;2022-12-29T18:10:53;7.00;54.40
37678;DHT22;23517;50.390;8.616;2022-12-29T18:13:25;6.90;55.10
37678;DHT22;23517;50.390;8.616;2022-12-29T18:16:04;6.70;54.90
37678;DHT22;23517;50.390;8.616;2022-12-29T18:18:31;6.50;55.90
37678;DHT22;23517;50.390;8.616;2022-12-29T18:20:58;6.40;56.20
37678;DHT22;23517;50.390;8.616;2022-12-29T18:23:28;6.30;56.80
37678;DHT22;23517;50.390;8.616;2022-12-29T18:26:03;6.10;57.80
37678;DHT22;23517;50.390;8.616;2022-12-29T18:28:31;6.10;58.80
37678;DHT22;23517;50.390;8.616;2022-12-29T18:30:59;6.00;59.10
37678;DHT22;23517;50.390;8.616;2022-12-29T18:33:27;5.90;59.20
37678;DHT22;23517;50.390;8.616;2022-12-29T18:35:57;5.90;59.60
37678;DHT22;23517;50.390;8.616;2022-12-29T18:38:27;5.80;61.20
37678;DHT22;23517;50.390;8.616;2022-12-29T18:40:56;5.90;61.50
37678;DHT22;23517;50.390;8.616;2022-12-29T18:43:23;5.80;59.60
37678;DHT22;23517;50.390;8.616;2022-12-29T18:45:50;5.70;60.00
37678;DHT22;23517;50.390;8.616;2022-12-29T18:48:18;5.60;61.60
37678;DHT22;23517;50.390;8.616;2022-12-29T18:50:46;5.50;62.30
37678;DHT22;23517;50.390;8.616;2022-12-29T18:53:20;5.50;62.30
37678;DHT22;23517;50.390;8.616;2022-12-29T18:55:49;5.30;62.40
37678;DHT22;23517;50.390;8.616;2022-12-29T18:58:17;5.30;63.50